Terminal Aerodrome Forecast
Issued by NWS

Home | Current Version | Previous Version | Graphics & Text | Print | Product List | Glossary On
Versions: 1 2 3 4 5 6 7 8 9 10 11 12 13 14 15 16 17 18 19 20 21 22 23
000
FTUS43 KLOT 241120
TAFGYY
TAF
KGYY 241120Z 2412/2512 19007KT P6SM SCT250
     FM241600 20012KT P6SM SCT050 BKN250
     FM250100 21007KT P6SM BKN250
     FM250900 18004KT 5SM BR SCT025 BKN050=

USA.gov is the U.S. government's official web portal to all federal, state and local government web resources and services.